Time;durP1;ratioP1;P1;durP2;ratioP2;P2;SDS_P1;SDS_P2;PMS_P1;PMS_P2;Temp;Humidity;BMP_temperature;BMP_pressure;BME280_temperature;BME280_humidity;BME280_pressure;Samples;Min_cycle;Max_cycle;Signal;HPM_P1;HPM_P2
2022/06/04 00:00:46;;;;;;;1.08;0.80;;;12.60;59.80;;;;;;5068405;28;20195;-52
2022/06/04 00:03:17;;;;;;;2.92;0.80;;;12.60;59.80;;;;;;5068830;28;20195;-53
2022/06/04 00:05:50;;;;;;;0.93;0.77;;;12.60;59.70;;;;;;5076182;28;20191;-49
2022/06/04 00:08:23;;;;;;;1.38;0.85;;;12.70;59.80;;;;;;5089838;28;20194;-50
2022/06/04 00:16:30;;;;;;;1.05;0.88;;;12.80;59.70;;;;;;5092188;28;20233;-53
2022/06/04 00:19:01;;;;;;;1.05;0.73;;;12.80;59.70;;;;;;5090280;28;20201;-50
2022/06/04 00:21:32;;;;;;;1.35;0.70;;;12.90;59.70;;;;;;5090450;28;20229;-50
2022/06/04 00:24:04;;;;;;;1.08;0.73;;;12.90;59.70;;;;;;5090962;28;20198;-50
2022/06/04 00:26:35;;;;;;;1.17;0.80;;;12.90;59.60;;;;;;5085721;28;20307;-49
2022/06/04 00:29:07;;;;;;;1.17;0.70;;;13.00;59.70;;;;;;5094536;28;20213;-50
2022/06/04 00:31:38;;;;;;;1.30;0.70;;;13.00;59.70;;;;;;5093333;28;20662;-49
2022/06/04 00:34:09;;;;;;;1.35;0.70;;;13.00;59.60;;;;;;5092926;28;21231;-51
2022/06/04 00:36:40;;;;;;;0.73;0.60;;;13.10;59.60;;;;;;5092822;28;20221;-51
2022/06/04 00:39:13;;;;;;;1.70;0.60;;;13.10;59.50;;;;;;5092997;28;20213;-50
2022/06/04 00:41:51;;;;;;;0.82;0.80;;;13.10;59.50;;;;;;5091962;28;20214;-50
2022/06/04 00:45:05;;;;;;;1.58;0.70;;;13.10;59.40;;;;;;5093111;28;20285;-49
2022/06/04 00:47:36;;;;;;;2.58;0.80;;;13.20;59.40;;;;;;5044960;28;20701;-50
2022/06/04 00:50:08;;;;;;;0.90;0.70;;;13.20;59.30;;;;;;5092934;28;20186;-51
2022/06/04 00:52:39;;;;;;;1.15;0.63;;;13.20;59.40;;;;;;5092896;28;20247;-52
2022/06/04 00:55:13;;;;;;;1.30;0.68;;;13.30;59.40;;;;;;5092923;28;20657;-50
2022/06/04 00:58:19;;;;;;;1.55;0.70;;;13.30;59.40;;;;;;5074918;28;20210;-49
2022/06/04 01:00:55;;;;;;;1.00;0.80;;;13.30;59.30;;;;;;5072171;28;20202;-50
2022/06/04 01:03:49;;;;;;;1.00;0.75;;;13.40;59.30;;;;;;5072351;28;20229;-50
2022/06/04 01:06:45;;;;;;;0.95;0.80;;;13.40;59.30;;;;;;5072069;28;20214;-50
2022/06/04 01:09:41;;;;;;;0.60;0.60;;;13.40;59.20;;;;;;5072279;28;20201;-49
2022/06/04 01:12:33;;;;;;;1.95;0.88;;;13.50;59.20;;;;;;5087085;28;20201;-49
2022/06/04 01:15:13;;;;;;;0.57;0.57;;;13.50;59.20;;;;;;5092795;28;20194;-50
2022/06/04 01:17:55;;;;;;;1.10;0.80;;;13.50;59.10;;;;;;5091971;28;20217;-50
2022/06/04 01:20:35;;;;;;;1.10;1.00;;;13.60;59.20;;;;;;5092269;28;20268;-48
2022/06/04 01:23:33;;;;;;;0.68;0.63;;;13.60;59.20;;;;;;5092185;28;20275;-51
2022/06/04 01:26:41;;;;;;;0.50;0.50;;;13.60;59.20;;;;;;5085529;28;20587;-51
2022/06/04 01:29:17;;;;;;;0.70;0.60;;;13.60;59.10;;;;;;5072174;28;20576;-49
2022/06/04 01:31:52;;;;;;;0.95;0.70;;;13.70;59.20;;;;;;5072188;28;20241;-50
2022/06/04 01:34:27;;;;;;;0.95;0.75;;;13.70;59.20;;;;;;5072246;28;20205;-50
2022/06/04 01:37:02;;;;;;;1.10;0.70;;;13.70;59.20;;;;;;5071821;28;20214;-51
2022/06/04 01:42:24;;;;;;;0.73;0.60;;;13.80;59.20;;;;;;5086201;28;20312;-50
2022/06/04 01:44:57;;;;;;;1.42;0.70;;;13.80;59.10;;;;;;5092035;28;20204;-51
2022/06/04 01:47:30;;;;;;;0.73;0.60;;;13.80;59.10;;;;;;5088330;28;20210;-50
2022/06/04 01:50:04;;;;;;;0.93;0.50;;;13.90;59.10;;;;;;5091780;28;20605;-52
2022/06/04 01:52:37;;;;;;;0.75;0.60;;;13.90;59.10;;;;;;5091533;28;20209;-50
2022/06/04 01:55:13;;;;;;;1.00;0.68;;;14.00;59.10;;;;;;5091632;28;20707;-50
2022/06/04 01:57:49;;;;;;;1.10;0.90;;;14.00;59.10;;;;;;5073501;28;20214;-53
2022/06/04 02:00:23;;;;;;;1.80;0.70;;;14.00;59.00;;;;;;5071053;28;20233;-50
2022/06/04 02:02:57;;;;;;;1.27;0.77;;;14.00;59.00;;;;;;5071034;28;20313;-50
2022/06/04 02:05:34;;;;;;;0.77;0.60;;;14.10;59.00;;;;;;5071356;28;20565;-52
2022/06/04 02:08:08;;;;;;;1.10;0.70;;;14.10;59.00;;;;;;5071313;28;20230;-52
2022/06/04 02:10:41;;;;;;;0.60;0.60;;;14.10;59.00;;;;;;5070607;28;20198;-51
2022/06/04 02:13:16;;;;;;;1.33;0.68;;;14.20;58.90;;;;;;5071026;28;20222;-52
2022/06/04 02:15:53;;;;;;;0.77;0.70;;;14.20;59.50;;;;;;5071575;28;20733;-50
2022/06/04 02:18:24;;;;;;;0.88;0.60;;;14.20;58.90;;;;;;5070853;28;20190;-51
2022/06/04 02:20:55;;;;;;;1.42;0.68;;;14.30;58.90;;;;;;5070777;28;20233;-51
2022/06/04 02:23:25;;;;;;;0.63;0.50;;;14.30;58.80;;;;;;5070686;28;20237;-50
2022/06/04 02:25:56;;;;;;;1.08;0.60;;;14.40;58.90;;;;;;5089181;28;20201;-56
2022/06/04 02:28:29;;;;;;;0.90;0.65;;;14.40;58.90;;;;;;5091357;28;20221;-49
2022/06/04 02:31:14;;;;;;;0.70;0.70;;;14.40;58.80;;;;;;5091030;28;20194;-55
2022/06/04 02:33:54;;;;;;;0.70;0.50;;;14.40;58.80;;;;;;5090531;28;20198;-51
2022/06/04 02:36:33;;;;;;;0.90;0.73;;;14.50;58.80;;;;;;5090648;28;20263;-53
2022/06/04 02:39:10;;;;;;;0.80;0.57;;;14.50;58.80;;;;;;5090711;28;20243;-51
2022/06/04 02:41:45;;;;;;;0.68;0.60;;;14.60;58.80;;;;;;5083716;28;20210;-55
2022/06/04 02:44:28;;;;;;;0.60;0.60;;;14.60;58.70;;;;;;5070506;28;20194;-48
2022/06/04 02:47:04;;;;;;;1.10;0.70;;;14.60;58.70;;;;;;5070258;28;20225;-57
2022/06/04 02:49:39;;;;;;;0.80;0.70;;;14.70;59.20;;;;;;5070069;28;20190;-54
2022/06/04 02:52:13;;;;;;;1.50;0.52;;;14.70;59.30;;;;;;5070670;28;20210;-50
2022/06/04 02:54:53;;;;;;;1.27;0.52;;;14.80;59.20;;;;;;5070449;28;20225;-52
2022/06/04 02:57:25;;;;;;;0.70;0.70;;;14.80;59.20;;;;;;5081420;28;20214;-57
2022/06/04 02:59:58;;;;;;;0.98;0.65;;;14.80;59.10;;;;;;5090762;28;20233;-50
2022/06/04 03:02:32;;;;;;;0.73;0.60;;;14.90;59.00;;;;;;5090393;28;20225;-56
2022/06/04 03:05:10;;;;;;;1.88;0.60;;;14.90;58.90;;;;;;5086613;28;20657;-52
2022/06/04 03:07:46;;;;;;;1.42;0.65;;;15.00;58.90;;;;;;5089935;28;20300;-50
2022/06/04 03:10:19;;;;;;;0.65;0.65;;;15.00;58.80;;;;;;5090316;28;20296;-52
2022/06/04 03:12:50;;;;;;;0.93;0.77;;;15.00;58.70;;;;;;5075141;28;20202;-51
2022/06/04 03:15:23;;;;;;;1.58;0.50;;;15.00;58.70;;;;;;5070455;28;20762;-51
2022/06/04 03:17:54;;;;;;;1.95;0.77;;;15.10;58.70;;;;;;5069795;28;20272;-50
2022/06/04 03:20:27;;;;;;;1.45;0.70;;;15.10;59.30;;;;;;5069793;28;20198;-53
2022/06/04 03:22:58;;;;;;;1.10;0.55;;;15.10;58.70;;;;;;5069573;28;20737;-51
2022/06/04 03:25:30;;;;;;;1.67;0.75;;;15.20;58.70;;;;;;5069426;28;20666;-51
2022/06/04 03:28:01;;;;;;;0.80;0.50;;;15.20;58.70;;;;;;5084645;28;20210;-53
2022/06/04 03:30:34;;;;;;;0.73;0.52;;;15.30;58.70;;;;;;5090340;28;20186;-52
2022/06/04 03:33:05;;;;;;;2.65;0.77;;;15.30;58.60;;;;;;5090004;28;20225;-54
2022/06/04 03:35:36;;;;;;;0.85;0.80;;;15.30;58.50;;;;;;5089932;28;20668;-51
2022/06/04 03:38:06;;;;;;;0.75;0.60;;;15.30;58.50;;;;;;5089996;28;20198;-51
2022/06/04 03:40:37;;;;;;;0.95;0.70;;;15.40;58.50;;;;;;5086691;28;20190;-53
2022/06/04 03:43:08;;;;;;;1.73;0.77;;;15.40;58.60;;;;;;5074035;28;20238;-57
2022/06/04 03:45:40;;;;;;;1.00;0.88;;;15.50;58.70;;;;;;5070261;28;20679;-53
2022/06/04 03:48:11;;;;;;;1.60;0.80;;;15.50;58.60;;;;;;5071135;28;20190;-52
2022/06/04 03:50:42;;;;;;;1.40;0.95;;;15.50;58.60;;;;;;5074217;28;20198;-53
2022/06/04 03:53:13;;;;;;;1.10;1.00;;;15.50;58.50;;;;;;5074047;28;20221;-53
2022/06/04 03:55:43;;;;;;;1.45;1.00;;;15.60;58.50;;;;;;5073744;28;20207;-51
2022/06/04 03:58:14;;;;;;;0.90;0.68;;;15.60;58.40;;;;;;5088851;28;20201;-52
2022/06/04 04:00:47;;;;;;;0.60;0.60;;;15.60;58.50;;;;;;5092479;28;20197;-51
2022/06/04 04:03:20;;;;;;;1.52;0.90;;;15.60;58.40;;;;;;5092946;28;20271;-54
2022/06/04 04:05:52;;;;;;;1.80;1.10;;;15.70;58.40;;;;;;5093495;28;20205;-50
2022/06/04 04:08:24;;;;;;;0.88;0.80;;;15.70;58.40;;;;;;5092858;28;20201;-51
2022/06/04 04:10:55;;;;;;;1.48;1.10;;;15.70;58.30;;;;;;5092493;28;20206;-53
2022/06/04 04:13:25;;;;;;;2.78;1.00;;;15.70;58.40;;;;;;5075780;28;20195;-56
2022/06/04 04:15:58;;;;;;;0.98;0.80;;;15.80;58.40;;;;;;5044723;23;20593;-49
2022/06/04 04:18:29;;;;;;;1.08;0.80;;;15.80;58.30;;;;;;4994138;28;20190;-48
2022/06/04 04:20:59;;;;;;;1.02;0.65;;;15.80;58.30;;;;;;4994247;28;20197;-54
2022/06/04 04:23:30;;;;;;;1.75;0.93;;;15.80;58.20;;;;;;4993721;28;20236;-48
2022/06/04 04:26:01;;;;;;;1.17;0.98;;;15.80;58.20;;;;;;4991418;28;20217;-54
2022/06/04 04:28:31;;;;;;;0.90;0.70;;;15.80;58.10;;;;;;4991138;28;20566;-48
2022/06/04 04:31:05;;;;;;;0.93;0.90;;;15.80;58.00;;;;;;4993825;28;20256;-50
2022/06/04 04:33:35;;;;;;;1.70;1.02;;;15.90;58.00;;;;;;4993876;28;20193;-53
2022/06/04 04:36:06;;;;;;;1.65;0.85;;;15.90;58.00;;;;;;4993858;28;20744;-51
2022/06/04 04:38:37;;;;;;;1.48;0.70;;;15.80;57.90;;;;;;4993512;28;20280;-58
2022/06/04 04:41:12;;;;;;;2.33;0.90;;;15.90;57.90;;;;;;4993441;28;20546;-47
2022/06/04 04:43:43;;;;;;;1.40;0.90;;;15.90;57.90;;;;;;4993026;28;20271;-46
2022/06/04 04:46:19;;;;;;;1.52;0.90;;;15.90;57.90;;;;;;4993071;28;20221;-52
2022/06/04 04:48:51;;;;;;;1.92;1.00;;;15.90;58.10;;;;;;4984336;28;20278;-48
2022/06/04 04:51:24;;;;;;;1.70;0.93;;;15.90;58.30;;;;;;4992350;28;20213;-55
2022/06/04 04:53:55;;;;;;;2.15;0.95;;;15.90;58.20;;;;;;4992267;28;20208;-47
2022/06/04 04:56:26;;;;;;;3.17;1.42;;;15.90;58.30;;;;;;4991833;28;20221;-49
2022/06/04 04:58:57;;;;;;;1.83;1.20;;;15.90;58.20;;;;;;4992167;28;20209;-47
2022/06/04 05:01:30;;;;;;;1.15;1.05;;;16.00;58.20;;;;;;4974380;28;20206;-54
2022/06/04 05:04:01;;;;;;;1.52;1.30;;;15.90;58.10;;;;;;4972134;28;20261;-50
2022/06/04 05:06:32;;;;;;;2.22;1.23;;;15.90;58.10;;;;;;4972097;28;20741;-52
2022/06/04 05:09:03;;;;;;;1.55;1.05;;;16.00;58.10;;;;;;4972386;28;20363;-50
2022/06/04 05:11:35;;;;;;;2.00;1.00;;;15.90;57.90;;;;;;4973026;28;20199;-48
2022/06/04 05:14:06;;;;;;;1.88;1.10;;;15.90;57.90;;;;;;4986852;28;20198;-48
2022/06/04 05:16:41;;;;;;;3.05;1.23;;;15.90;57.90;;;;;;4992526;28;20221;-47
2022/06/04 05:19:12;;;;;;;2.47;1.50;;;15.90;57.80;;;;;;4991903;28;20201;-60
2022/06/04 05:21:46;;;;;;;2.10;1.60;;;15.90;57.80;;;;;;4991995;28;20197;-52
2022/06/04 05:24:21;;;;;;;2.53;1.30;;;15.90;57.70;;;;;;4992648;28;20631;-53
2022/06/04 05:26:52;;;;;;;2.95;1.25;;;15.90;57.70;;;;;;4991534;28;20235;-47
2022/06/04 05:29:24;;;;;;;1.70;1.30;;;15.90;57.70;;;;;;4971909;28;20206;-52
2022/06/04 05:31:57;;;;;;;1.70;1.20;;;15.90;57.70;;;;;;4971768;28;20238;-51
2022/06/04 05:34:28;;;;;;;2.15;1.30;;;15.90;57.70;;;;;;4975800;28;20305;-54
2022/06/04 05:36:59;;;;;;;2.33;1.25;;;15.80;57.60;;;;;;4973135;28;20222;-50
2022/06/04 05:39:31;;;;;;;1.58;1.02;;;15.90;58.30;;;;;;4971899;28;20876;-50
2022/06/04 05:42:03;;;;;;;1.33;1.10;;;15.90;57.70;;;;;;4971675;28;20634;-54
2022/06/04 05:44:34;;;;;;;1.70;1.13;;;15.80;57.70;;;;;;4972285;28;20230;-51
2022/06/04 05:47:07;;;;;;;2.40;1.20;;;15.80;57.60;;;;;;4972325;28;20218;-58
2022/06/04 05:49:37;;;;;;;2.63;1.40;;;15.80;57.60;;;;;;4980375;28;20221;-48
2022/06/04 05:52:08;;;;;;;1.50;1.25;;;15.80;57.60;;;;;;4980004;28;20205;-52
2022/06/04 05:54:39;;;;;;;1.48;1.23;;;15.80;57.60;;;;;;4991112;28;20205;-52
2022/06/04 05:57:10;;;;;;;3.28;1.25;;;15.80;57.50;;;;;;4991605;28;20218;-47
2022/06/04 05:59:40;;;;;;;1.08;0.98;;;15.80;58.10;;;;;;4973976;28;20558;-47
2022/06/04 06:02:14;;;;;;;2.22;1.33;;;15.80;57.50;;;;;;4971815;28;20198;-47
2022/06/04 06:04:44;;;;;;;2.42;1.40;;;15.70;57.40;;;;;;4971823;28;20221;-48
2022/06/04 06:07:15;;;;;;;2.70;1.30;;;15.70;57.40;;;;;;4971414;28;20690;-47
2022/06/04 06:09:46;;;;;;;2.17;1.05;;;15.70;57.50;;;;;;4972259;28;20225;-48
2022/06/04 06:12:16;;;;;;;2.05;1.33;;;15.70;57.40;;;;;;4970940;28;20603;-50
2022/06/04 06:14:47;;;;;;;2.38;1.25;;;15.70;57.50;;;;;;4978503;28;20206;-56
2022/06/04 06:17:20;;;;;;;2.30;1.30;;;15.70;57.50;;;;;;4970891;28;20250;-49
2022/06/04 06:19:51;;;;;;;2.10;1.38;;;15.60;57.50;;;;;;4972151;28;20191;-51
2022/06/04 06:22:21;;;;;;;1.85;1.08;;;15.60;57.50;;;;;;4981006;28;20650;-50
2022/06/04 06:24:52;;;;;;;1.30;1.20;;;15.60;57.50;;;;;;4972763;28;20304;-47
2022/06/04 06:27:23;;;;;;;1.63;1.10;;;15.60;57.50;;;;;;4971492;28;20230;-52
2022/06/04 06:29:53;;;;;;;2.88;1.15;;;15.50;57.50;;;;;;4975697;28;20652;-47
2022/06/04 06:32:26;;;;;;;1.90;1.20;;;15.50;57.50;;;;;;4971309;28;20561;-47
2022/06/04 06:34:57;;;;;;;1.85;1.20;;;15.50;57.50;;;;;;4971863;28;20198;-48
2022/06/04 06:37:28;;;;;;;1.58;1.20;;;15.50;57.50;;;;;;4971300;28;20553;-50
2022/06/04 06:39:58;;;;;;;1.85;1.23;;;15.50;57.50;;;;;;4971285;28;20205;-54
2022/06/04 06:42:29;;;;;;;1.58;1.00;;;15.50;57.70;;;;;;4970902;28;20205;-47
2022/06/04 06:45:00;;;;;;;1.60;1.10;;;15.50;57.50;;;;;;4987268;28;20217;-52
2022/06/04 06:47:35;;;;;;;1.92;1.10;;;15.40;57.40;;;;;;4971370;28;20229;-52
2022/06/04 06:50:07;;;;;;;1.25;1.13;;;15.40;57.50;;;;;;4970131;28;20194;-47
2022/06/04 06:52:37;;;;;;;2.20;1.27;;;15.40;57.50;;;;;;4971048;28;20683;-58
2022/06/04 06:55:09;;;;;;;1.60;1.30;;;15.40;57.50;;;;;;4970729;28;20198;-47
2022/06/04 06:57:40;;;;;;;1.35;1.20;;;15.40;57.50;;;;;;4972544;28;20682;-47
2022/06/04 07:00:12;;;;;;;1.23;1.10;;;15.40;57.50;;;;;;4970939;28;20198;-50
2022/06/04 07:02:44;;;;;;;2.10;1.05;;;15.30;57.50;;;;;;4970548;28;20210;-47
2022/06/04 07:05:15;;;;;;;1.17;1.00;;;15.30;57.50;;;;;;4970347;28;20226;-49
2022/06/04 07:07:46;;;;;;;2.15;1.27;;;15.30;57.50;;;;;;4970393;28;20570;-51
2022/06/04 07:10:17;;;;;;;2.33;1.25;;;15.30;57.60;;;;;;4971093;28;20654;-48
2022/06/04 07:12:48;;;;;;;1.60;1.30;;;15.30;57.60;;;;;;4971964;28;20198;-54
2022/06/04 07:15:19;;;;;;;1.63;1.23;;;15.30;57.60;;;;;;4978544;28;20217;-56
2022/06/04 07:17:51;;;;;;;1.63;1.38;;;15.30;57.60;;;;;;4970309;28;20221;-48
2022/06/04 07:20:22;;;;;;;1.52;1.20;;;15.20;57.50;;;;;;4985029;28;20204;-47
2022/06/04 07:22:53;;;;;;;1.60;1.30;;;15.20;57.50;;;;;;4971524;28;20197;-55
2022/06/04 07:25:23;;;;;;;1.35;1.10;;;15.20;57.60;;;;;;4970081;28;20225;-48
2022/06/04 07:27:54;;;;;;;1.67;1.42;;;15.20;57.60;;;;;;4972133;28;20222;-54
2022/06/04 07:30:25;;;;;;;2.00;1.15;;;15.20;57.50;;;;;;4989916;28;20721;-51
2022/06/04 07:32:58;;;;;;;1.52;1.40;;;15.10;58.10;;;;;;4990212;28;20590;-47
2022/06/04 07:35:29;;;;;;;1.30;1.20;;;15.10;57.50;;;;;;4985216;28;20557;-52
2022/06/04 07:38:00;;;;;;;1.27;0.90;;;15.10;57.50;;;;;;4970765;28;20222;-53
2022/06/04 07:40:31;;;;;;;1.75;1.10;;;15.10;57.50;;;;;;4982474;28;20201;-52
2022/06/04 07:43:01;;;;;;;1.88;1.20;;;15.10;57.50;;;;;;4989426;28;20681;-48
2022/06/04 07:45:32;;;;;;;1.92;1.35;;;15.10;57.60;;;;;;4984291;28;20245;-55
2022/06/04 07:48:05;;;;;;;1.33;1.02;;;15.00;57.50;;;;;;4970435;28;20218;-52
2022/06/04 07:50:35;;;;;;;1.77;1.38;;;15.00;57.50;;;;;;4969975;28;20198;-50
2022/06/04 07:53:06;;;;;;;1.85;1.13;;;15.00;58.20;;;;;;4970144;28;20724;-47
2022/06/04 07:55:40;;;;;;;1.30;1.00;;;15.00;58.20;;;;;;4970291;28;20206;-49
2022/06/04 07:58:11;;;;;;;1.25;1.10;;;15.00;58.00;;;;;;4971982;28;20287;-47
2022/06/04 08:00:42;;;;;;;3.33;1.20;;;15.00;58.50;;;;;;4995095;28;20204;-51
2022/06/04 08:03:15;;;;;;;1.20;1.05;;;15.00;58.40;;;;;;5005425;28;20201;-58
2022/06/04 08:05:45;;;;;;;1.58;1.20;;;15.00;58.30;;;;;;5001178;28;20201;-47
2022/06/04 08:08:16;;;;;;;1.55;1.30;;;15.00;58.20;;;;;;5005139;28;20200;-49
2022/06/04 08:10:50;;;;;;;2.20;1.20;;;14.90;58.10;;;;;;5005376;28;20205;-49
2022/06/04 08:13:23;;;;;;;2.97;1.50;;;14.90;58.10;;;;;;5008583;28;20575;-51
2022/06/04 08:15:55;;;;;;;1.63;1.02;;;14.90;58.00;;;;;;5002793;28;20202;-49
2022/06/04 08:18:28;;;;;;;1.50;1.30;;;14.90;58.00;;;;;;5004111;28;20204;-50
2022/06/04 08:20:59;;;;;;;1.48;1.33;;;14.90;58.00;;;;;;5000204;28;20189;-49
2022/06/04 08:23:30;;;;;;;1.67;1.27;;;14.90;58.00;;;;;;5004599;28;20201;-49
2022/06/04 08:26:00;;;;;;;2.45;1.23;;;14.80;57.90;;;;;;5007075;28;20596;-48
2022/06/04 08:28:31;;;;;;;1.70;1.27;;;14.80;58.00;;;;;;5004307;28;20642;-52
2022/06/04 08:31:06;;;;;;;1.35;1.25;;;14.80;58.00;;;;;;5004347;28;20193;-47
2022/06/04 08:33:39;;;;;;;1.55;1.20;;;14.80;58.00;;;;;;5003030;28;20193;-47
2022/06/04 08:36:11;;;;;;;2.92;1.17;;;14.80;58.00;;;;;;5008554;28;20217;-47
2022/06/04 08:38:43;;;;;;;1.83;1.27;;;14.80;58.00;;;;;;5007583;28;20200;-48
2022/06/04 08:41:28;;;;;;;1.95;1.20;;;14.80;58.00;;;;;;5009617;28;20208;-49
2022/06/04 08:44:04;;;;;;;1.38;1.10;;;14.70;58.00;;;;;;5006068;28;20224;-52
2022/06/04 08:46:41;;;;;;;2.55;1.80;;;14.70;57.90;;;;;;5008136;28;20625;-56
2022/06/04 08:49:17;;;;;;;2.45;1.60;;;14.70;60.90;;;;;;5004431;28;20663;-47
2022/06/04 08:51:48;;;;;;;1.65;1.33;;;14.80;62.60;;;;;;5010968;28;20197;-52
2022/06/04 09:00:12;;;;;;;2.38;1.50;;;14.80;62.00;;;;;;5008762;28;20252;-58
2022/06/04 09:03:01;;;;;;;2.15;1.40;;;14.80;61.50;;;;;;5006410;28;21312;-47
2022/06/04 09:05:49;;;;;;;1.85;1.50;;;14.80;61.10;;;;;;5009804;28;20271;-48
2022/06/04 09:08:25;;;;;;;2.45;1.80;;;14.80;60.90;;;;;;5007572;28;20680;-47
2022/06/04 09:10:59;;;;;;;2.83;1.90;;;14.80;60.60;;;;;;5008366;28;20197;-50
2022/06/04 09:13:34;;;;;;;2.00;1.60;;;14.80;60.50;;;;;;5009574;28;20799;-49
2022/06/04 09:16:09;;;;;;;2.25;1.88;;;14.80;60.40;;;;;;5007708;28;20565;-47
2022/06/04 09:18:41;;;;;;;2.22;1.52;;;14.80;60.30;;;;;;5007544;28;20218;-47
2022/06/04 09:21:16;;;;;;;1.92;1.55;;;14.80;60.10;;;;;;5007525;28;20255;-47
2022/06/04 09:23:50;;;;;;;3.75;1.60;;;14.70;60.00;;;;;;5006276;28;20208;-49
2022/06/04 09:26:30;;;;;;;1.77;1.48;;;14.70;59.90;;;;;;5008869;28;20905;-49
2022/06/04 09:29:17;;;;;;;2.47;1.52;;;14.70;59.80;;;;;;5004602;28;20200;-48
2022/06/04 09:32:01;;;;;;;1.85;1.40;;;14.70;59.70;;;;;;5007947;28;20687;-47
2022/06/04 09:34:37;;;;;;;1.98;1.40;;;14.70;59.70;;;;;;5006733;28;20280;-47
2022/06/04 09:37:12;;;;;;;3.78;1.70;;;14.70;59.60;;;;;;5006691;28;20216;-47
2022/06/04 09:39:44;;;;;;;1.98;1.33;;;14.60;60.20;;;;;;5009810;28;20192;-47
2022/06/04 09:42:24;;;;;;;2.63;1.65;;;14.60;59.50;;;;;;5010022;28;20197;-47
2022/06/04 09:45:00;;;;;;;2.03;1.30;;;14.60;59.40;;;;;;5010794;28;20227;-47
2022/06/04 09:47:36;;;;;;;1.73;1.30;;;14.60;59.40;;;;;;5008289;28;20220;-48
2022/06/04 09:50:22;;;;;;;3.05;1.50;;;14.60;59.40;;;;;;5010517;28;20216;-48
2022/06/04 09:53:05;;;;;;;1.98;1.30;;;14.60;59.30;;;;;;5010078;28;20205;-50
2022/06/04 09:55:36;;;;;;;1.88;1.50;;;14.60;59.30;;;;;;5009514;28;20192;-50
2022/06/04 09:58:09;;;;;;;2.97;1.40;;;14.60;59.30;;;;;;5009689;28;20200;-49
2022/06/04 10:00:41;;;;;;;2.42;1.48;;;14.60;59.40;;;;;;5009674;28;20664;-48
2022/06/04 10:03:17;;;;;;;1.90;1.25;;;14.50;59.30;;;;;;5009701;28;20270;-47
2022/06/04 10:05:54;;;;;;;1.63;1.35;;;14.50;59.20;;;;;;5010030;28;20608;-49
2022/06/04 10:08:29;;;;;;;3.53;1.70;;;14.50;59.30;;;;;;5010041;28;20200;-59
2022/06/04 10:11:05;;;;;;;1.58;1.48;;;14.50;59.20;;;;;;5010433;28;20228;-48
2022/06/04 10:13:46;;;;;;;2.10;1.58;;;14.50;59.20;;;;;;5009986;28;20653;-47
2022/06/04 10:16:19;;;;;;;2.05;1.42;;;14.50;59.20;;;;;;5009516;28;20239;-47
2022/06/04 10:19:00;;;;;;;1.55;1.30;;;14.50;59.20;;;;;;5010047;28;20220;-49
2022/06/04 10:21:35;;;;;;;2.35;1.65;;;14.50;59.10;;;;;;5009491;28;20197;-49
2022/06/04 10:24:22;;;;;;;1.90;1.55;;;14.40;59.00;;;;;;5009840;28;20192;-49
2022/06/04 10:27:07;;;;;;;2.08;1.48;;;14.40;59.00;;;;;;5008039;28;20223;-50
2022/06/04 10:30:07;;;;;;;1.95;1.50;;;14.40;59.00;;;;;;5007308;28;20200;-49
2022/06/04 10:32:52;;;;;;;2.10;1.40;;;14.40;59.00;;;;;;5009653;28;20189;-48
2022/06/04 10:35:37;;;;;;;2.50;1.42;;;14.40;59.00;;;;;;5009686;28;20193;-47
2022/06/04 10:38:21;;;;;;;1.70;1.27;;;14.40;59.00;;;;;;5008864;28;20200;-48
2022/06/04 10:41:09;;;;;;;2.47;1.50;;;14.30;58.90;;;;;;5009264;28;20211;-47
2022/06/04 10:44:06;;;;;;;2.05;1.30;;;14.30;58.90;;;;;;5006237;28;20200;-47
2022/06/04 10:46:46;;;;;;;2.38;1.90;;;14.30;58.90;;;;;;4995047;28;20224;-52
2022/06/04 10:49:34;;;;;;;2.80;1.75;;;14.30;58.80;;;;;;5008909;28;20192;-47
2022/06/04 10:52:17;;;;;;;1.63;1.50;;;14.30;58.90;;;;;;5008328;28;20189;-55
2022/06/04 10:54:54;;;;;;;2.97;1.80;;;14.30;58.90;;;;;;5007031;28;20211;-49
2022/06/04 10:57:30;;;;;;;3.15;1.90;;;14.30;58.90;;;;;;5008072;28;20212;-48
2022/06/04 11:00:04;;;;;;;1.92;1.73;;;14.30;58.90;;;;;;5006724;28;20238;-48
2022/06/04 11:02:41;;;;;;;2.50;1.67;;;14.30;58.90;;;;;;5009421;28;20272;-47
2022/06/04 11:05:19;;;;;;;2.25;1.55;;;14.30;58.90;;;;;;5008436;28;20221;-52
2022/06/04 11:07:54;;;;;;;2.67;1.98;;;14.30;58.80;;;;;;5009395;28;20600;-49
2022/06/04 11:10:27;;;;;;;2.10;1.80;;;14.30;58.80;;;;;;5008121;28;20232;-47
2022/06/04 11:13:09;;;;;;;2.80;1.90;;;14.30;58.80;;;;;;5005478;28;20193;-47
2022/06/04 11:15:45;;;;;;;2.83;2.00;;;14.20;58.70;;;;;;5002231;28;20197;-47
2022/06/04 11:18:20;;;;;;;2.17;1.67;;;14.20;58.70;;;;;;5005679;28;20196;-47
2022/06/04 11:20:58;;;;;;;2.13;1.65;;;14.20;58.70;;;;;;5005641;28;20724;-46
2022/06/04 11:23:42;;;;;;;2.83;2.00;;;14.20;58.70;;;;;;5008736;28;20199;-47
2022/06/04 11:26:20;;;;;;;2.20;2.00;;;14.20;58.70;;;;;;5005263;28;20285;-46
2022/06/04 11:28:54;;;;;;;2.08;1.88;;;14.20;58.70;;;;;;5005819;28;20197;-47
2022/06/04 11:31:35;;;;;;;1.92;1.70;;;14.20;58.70;;;;;;5004834;28;20255;-47
2022/06/04 11:34:21;;;;;;;1.90;1.70;;;14.10;58.70;;;;;;5004730;28;20193;-47
2022/06/04 11:36:57;;;;;;;2.03;1.63;;;14.10;58.70;;;;;;5005334;28;20220;-47
2022/06/04 11:39:43;;;;;;;1.95;1.50;;;14.10;58.70;;;;;;5007571;28;20224;-50
2022/06/04 11:42:20;;;;;;;1.85;1.50;;;14.10;58.70;;;;;;5007463;28;20200;-47
2022/06/04 11:45:06;;;;;;;2.15;1.65;;;14.10;58.70;;;;;;5006565;28;20227;-47
2022/06/04 11:47:50;;;;;;;2.38;1.63;;;14.00;58.60;;;;;;5007809;28;20204;-46
2022/06/04 11:50:26;;;;;;;1.90;1.52;;;14.00;58.70;;;;;;5007463;28;20255;-48
2022/06/04 11:53:05;;;;;;;2.17;1.70;;;14.00;58.60;;;;;;5007132;28;20184;-46
2022/06/04 11:55:43;;;;;;;2.50;1.90;;;14.00;58.70;;;;;;5006341;28;20212;-48
2022/06/04 11:58:46;;;;;;;2.15;1.70;;;14.00;58.60;;;;;;5007022;28;20192;-50
2022/06/04 12:01:25;;;;;;;2.67;1.60;;;14.00;58.70;;;;;;4951568;28;20197;-48
2022/06/04 12:04:01;;;;;;;2.15;1.70;;;14.10;58.60;;;;;;4971443;28;20201;-48
2022/06/04 12:06:37;;;;;;;2.25;1.70;;;14.00;58.60;;;;;;4971365;28;20240;-47
2022/06/04 12:09:15;;;;;;;2.05;1.83;;;14.00;58.60;;;;;;4971229;28;20222;-48
2022/06/04 12:11:51;;;;;;;3.92;1.75;;;14.00;58.60;;;;;;4973893;28;20202;-48
2022/06/04 12:14:32;;;;;;;2.15;1.73;;;14.00;58.60;;;;;;4972947;28;20583;-52
2022/06/04 12:17:16;;;;;;;3.00;1.80;;;14.00;58.70;;;;;;4990601;28;20225;-48
2022/06/04 12:25:40;;;;;;;2.42;1.58;;;13.90;58.70;;;;;;4993228;28;20696;-47
2022/06/04 12:28:28;;;;;;;2.17;1.63;;;13.90;58.70;;;;;;4993076;28;20205;-53
2022/06/04 12:31:01;;;;;;;2.28;1.40;;;13.90;58.70;;;;;;4992367;28;20670;-48
2022/06/04 12:33:37;;;;;;;1.95;1.45;;;13.90;58.60;;;;;;4993630;28;20249;-48
2022/06/04 12:36:11;;;;;;;1.65;1.35;;;13.90;58.70;;;;;;4993233;28;20686;-48
2022/06/04 12:38:43;;;;;;;2.30;1.80;;;13.90;58.60;;;;;;4993639;28;20209;-47
2022/06/04 12:41:17;;;;;;;2.10;1.52;;;13.90;58.60;;;;;;4993614;28;20201;-49
2022/06/04 12:43:50;;;;;;;2.05;1.85;;;13.90;58.60;;;;;;4993576;28;20221;-57
2022/06/04 12:46:33;;;;;;;1.52;1.40;;;13.90;58.60;;;;;;4992606;28;20225;-48
2022/06/04 12:49:23;;;;;;;2.40;1.58;;;13.90;58.60;;;;;;4993069;28;20209;-48
2022/06/04 12:51:58;;;;;;;1.65;1.50;;;13.80;58.50;;;;;;4992954;28;20205;-51
2022/06/04 12:54:48;;;;;;;1.65;1.50;;;13.80;58.50;;;;;;4993453;28;20209;-49
2022/06/04 12:57:56;;;;;;;2.47;1.58;;;13.80;58.50;;;;;;4993053;28;20228;-51
2022/06/04 13:00:39;;;;;;;2.67;1.50;;;13.80;58.50;;;;;;4992955;28;20208;-49
2022/06/04 13:03:34;;;;;;;1.73;1.50;;;13.80;58.50;;;;;;4993323;28;20201;-48
2022/06/04 13:06:25;;;;;;;1.70;1.50;;;13.80;58.50;;;;;;4993302;28;20228;-48
2022/06/04 13:09:04;;;;;;;1.70;1.60;;;13.70;58.50;;;;;;4992930;28;20781;-48
2022/06/04 13:12:01;;;;;;;2.20;1.60;;;13.70;58.50;;;;;;4993168;28;20209;-48
2022/06/04 13:14:43;;;;;;;1.83;1.50;;;13.70;58.40;;;;;;4991974;28;20264;-48
2022/06/04 13:17:36;;;;;;;2.63;1.38;;;13.70;58.40;;;;;;4992949;28;20225;-49
2022/06/04 13:20:41;;;;;;;1.98;1.17;;;13.70;58.40;;;;;;4992317;28;20690;-48
2022/06/04 13:23:26;;;;;;;1.77;1.60;;;13.70;58.40;;;;;;4951328;29;20683;-48
2022/06/04 13:26:24;;;;;;;1.77;1.45;;;13.70;58.40;;;;;;4950968;29;20234;-49
2022/06/04 13:28:55;;;;;;;1.63;1.45;;;13.70;58.40;;;;;;4984709;28;20224;-48
2022/06/04 13:31:29;;;;;;;1.70;1.50;;;13.70;58.30;;;;;;4992265;28;20616;-49
2022/06/04 13:34:01;;;;;;;1.63;1.52;;;13.70;58.40;;;;;;4992556;28;20201;-50
2022/06/04 13:36:33;;;;;;;1.65;1.48;;;13.70;59.00;;;;;;4991675;28;20224;-51
2022/06/04 13:39:05;;;;;;;1.45;1.30;;;13.60;58.40;;;;;;4992556;28;20197;-49
2022/06/04 13:44:30;;;;;;;2.08;1.58;;;13.60;58.40;;;;;;4992670;28;20212;-49
2022/06/04 13:47:20;;;;;;;1.70;1.40;;;13.60;58.40;;;;;;4991806;28;20239;-50
2022/06/04 13:49:52;;;;;;;1.88;1.45;;;13.60;58.40;;;;;;4992268;28;20193;-49
2022/06/04 13:52:27;;;;;;;1.60;1.15;;;13.60;58.40;;;;;;4992065;28;20197;-53
2022/06/04 13:55:01;;;;;;;1.33;1.23;;;13.60;58.40;;;;;;4992824;28;20554;-51